sensor_id;sensor_type;location;lat;lon;timestamp;temperature;humidity
39657;DHT22;25337;51.478;7.510;2024-01-27T00:01:55;2.60;99.90
39657;DHT22;25337;51.478;7.510;2024-01-27T00:04:20;2.60;99.90
39657;DHT22;25337;51.478;7.510;2024-01-27T00:06:46;2.60;99.90
39657;DHT22;25337;51.478;7.510;2024-01-27T00:09:11;2.60;99.90
39657;DHT22;25337;51.478;7.510;2024-01-27T00:11:37;2.60;99.90
39657;DHT22;25337;51.478;7.510;2024-01-27T00:14:03;2.60;99.90
39657;DHT22;25337;51.478;7.510;2024-01-27T00:16:28;2.60;99.90
39657;DHT22;25337;51.478;7.510;2024-01-27T00:18:55;2.60;99.90
39657;DHT22;25337;51.478;7.510;2024-01-27T00:21:20;2.50;99.90
39657;DHT22;25337;51.478;7.510;2024-01-27T00:23:46;2.50;99.90
39657;DHT22;25337;51.478;7.510;2024-01-27T00:26:12;2.60;99.90
39657;DHT22;25337;51.478;7.510;2024-01-27T00:28:37;2.60;99.90
39657;DHT22;25337;51.478;7.510;2024-01-27T00:31:03;2.40;99.90
39657;DHT22;25337;51.478;7.510;2024-01-27T00:33:29;2.40;99.90
39657;DHT22;25337;51.478;7.510;2024-01-27T00:35:54;2.40;99.90
39657;DHT22;25337;51.478;7.510;2024-01-27T00:38:20;2.40;99.90
39657;DHT22;25337;51.478;7.510;2024-01-27T00:40:46;2.40;99.90
39657;DHT22;25337;51.478;7.510;2024-01-27T00:43:11;2.40;99.90
39657;DHT22;25337;51.478;7.510;2024-01-27T00:45:37;2.40;99.90
39657;DHT22;25337;51.478;7.510;2024-01-27T00:48:03;2.40;99.90
39657;DHT22;25337;51.478;7.510;2024-01-27T00:50:28;2.50;99.90
39657;DHT22;25337;51.478;7.510;2024-01-27T00:52:54;2.40;99.90
39657;DHT22;25337;51.478;7.510;2024-01-27T00:55:19;2.40;99.90
39657;DHT22;25337;51.478;7.510;2024-01-27T00:57:45;2.40;99.90
39657;DHT22;25337;51.478;7.510;2024-01-27T01:00:11;2.30;99.90
39657;DHT22;25337;51.478;7.510;2024-01-27T01:02:37;2.40;99.90
39657;DHT22;25337;51.478;7.510;2024-01-27T01:05:04;2.30;99.90
39657;DHT22;25337;51.478;7.510;2024-01-27T01:07:30;2.40;99.90
39657;DHT22;25337;51.478;7.510;2024-01-27T01:09:56;2.40;99.90
39657;DHT22;25337;51.478;7.510;2024-01-27T01:12:22;2.40;99.90
39657;DHT22;25337;51.478;7.510;2024-01-27T01:14:47;2.30;99.90
39657;DHT22;25337;51.478;7.510;2024-01-27T01:17:13;2.20;99.90
39657;DHT22;25337;51.478;7.510;2024-01-27T01:19:39;2.00;99.90
39657;DHT22;25337;51.478;7.510;2024-01-27T01:22:05;1.90;99.90
39657;DHT22;25337;51.478;7.510;2024-01-27T01:24:31;1.90;99.90
39657;DHT22;25337;51.478;7.510;2024-01-27T01:26:57;1.90;99.90
39657;DHT22;25337;51.478;7.510;2024-01-27T01:29:22;2.00;99.90
39657;DHT22;25337;51.478;7.510;2024-01-27T01:31:48;2.00;99.90
39657;DHT22;25337;51.478;7.510;2024-01-27T01:34:14;2.00;99.90
39657;DHT22;25337;51.478;7.510;2024-01-27T01:36:40;2.00;99.90
39657;DHT22;25337;51.478;7.510;2024-01-27T01:39:06;2.00;99.90
39657;DHT22;25337;51.478;7.510;2024-01-27T01:41:32;1.90;99.90
39657;DHT22;25337;51.478;7.510;2024-01-27T01:43:58;1.90;99.90
39657;DHT22;25337;51.478;7.510;2024-01-27T01:46:24;1.90;99.90
39657;DHT22;25337;51.478;7.510;2024-01-27T01:48:50;1.90;99.90
39657;DHT22;25337;51.478;7.510;2024-01-27T01:51:16;1.80;99.90
39657;DHT22;25337;51.478;7.510;2024-01-27T01:53:43;1.60;99.90
39657;DHT22;25337;51.478;7.510;2024-01-27T01:56:10;1.60;99.90
39657;DHT22;25337;51.478;7.510;2024-01-27T01:58:38;1.50;99.90
39657;DHT22;25337;51.478;7.510;2024-01-27T02:01:04;1.60;99.90
39657;DHT22;25337;51.478;7.510;2024-01-27T02:03:30;1.70;99.90
39657;DHT22;25337;51.478;7.510;2024-01-27T02:05:55;1.60;99.90
39657;DHT22;25337;51.478;7.510;2024-01-27T02:08:21;1.50;99.90
39657;DHT22;25337;51.478;7.510;2024-01-27T02:10:47;1.40;99.90
39657;DHT22;25337;51.478;7.510;2024-01-27T02:13:20;1.30;99.90
39657;DHT22;25337;51.478;7.510;2024-01-27T02:15:47;1.20;99.90
39657;DHT22;25337;51.478;7.510;2024-01-27T02:18:13;1.20;99.90
39657;DHT22;25337;51.478;7.510;2024-01-27T02:20:39;1.30;99.90
39657;DHT22;25337;51.478;7.510;2024-01-27T02:23:05;1.30;99.90
39657;DHT22;25337;51.478;7.510;2024-01-27T02:25:31;1.30;99.90
39657;DHT22;25337;51.478;7.510;2024-01-27T02:27:57;1.20;99.90
39657;DHT22;25337;51.478;7.510;2024-01-27T02:30:22;1.20;99.90
39657;DHT22;25337;51.478;7.510;2024-01-27T02:32:48;1.30;99.90
39657;DHT22;25337;51.478;7.510;2024-01-27T02:35:14;1.40;99.90
39657;DHT22;25337;51.478;7.510;2024-01-27T02:37:40;1.50;99.90
39657;DHT22;25337;51.478;7.510;2024-01-27T02:40:07;1.60;99.90
39657;DHT22;25337;51.478;7.510;2024-01-27T02:42:33;1.60;99.90
39657;DHT22;25337;51.478;7.510;2024-01-27T02:44:58;1.60;99.90
39657;DHT22;25337;51.478;7.510;2024-01-27T02:47:24;1.50;99.90
39657;DHT22;25337;51.478;7.510;2024-01-27T02:49:50;1.40;99.90
39657;DHT22;25337;51.478;7.510;2024-01-27T02:52:15;1.30;99.90
39657;DHT22;25337;51.478;7.510;2024-01-27T02:54:41;1.30;99.90
39657;DHT22;25337;51.478;7.510;2024-01-27T02:57:07;1.40;99.90
39657;DHT22;25337;51.478;7.510;2024-01-27T02:59:32;1.30;99.90
39657;DHT22;25337;51.478;7.510;2024-01-27T03:01:58;1.50;99.90
39657;DHT22;25337;51.478;7.510;2024-01-27T03:04:23;1.50;99.90
39657;DHT22;25337;51.478;7.510;2024-01-27T03:06:49;1.60;99.90
39657;DHT22;25337;51.478;7.510;2024-01-27T03:09:15;1.60;99.90
39657;DHT22;25337;51.478;7.510;2024-01-27T03:11:40;1.60;99.90
39657;DHT22;25337;51.478;7.510;2024-01-27T03:14:06;1.70;99.90
39657;DHT22;25337;51.478;7.510;2024-01-27T03:16:32;1.70;99.90
39657;DHT22;25337;51.478;7.510;2024-01-27T03:18:58;1.60;99.90
39657;DHT22;25337;51.478;7.510;2024-01-27T03:21:23;1.60;99.90
39657;DHT22;25337;51.478;7.510;2024-01-27T03:23:49;1.70;99.90
39657;DHT22;25337;51.478;7.510;2024-01-27T03:26:14;1.70;99.90
39657;DHT22;25337;51.478;7.510;2024-01-27T03:28:40;1.70;99.90
39657;DHT22;25337;51.478;7.510;2024-01-27T03:31:06;1.70;99.90
39657;DHT22;25337;51.478;7.510;2024-01-27T03:33:32;1.70;99.90
39657;DHT22;25337;51.478;7.510;2024-01-27T03:35:57;1.80;99.90
39657;DHT22;25337;51.478;7.510;2024-01-27T03:38:23;1.80;99.90
39657;DHT22;25337;51.478;7.510;2024-01-27T03:40:48;1.80;99.90
39657;DHT22;25337;51.478;7.510;2024-01-27T03:43:14;1.70;99.90
39657;DHT22;25337;51.478;7.510;2024-01-27T03:45:40;1.70;99.90
39657;DHT22;25337;51.478;7.510;2024-01-27T03:48:06;1.70;99.90
39657;DHT22;25337;51.478;7.510;2024-01-27T03:50:32;1.80;99.90
39657;DHT22;25337;51.478;7.510;2024-01-27T03:52:57;1.80;99.90
39657;DHT22;25337;51.478;7.510;2024-01-27T03:55:23;1.70;99.90
39657;DHT22;25337;51.478;7.510;2024-01-27T03:57:48;1.70;99.90
39657;DHT22;25337;51.478;7.510;2024-01-27T04:00:14;1.70;99.90
39657;DHT22;25337;51.478;7.510;2024-01-27T04:02:40;1.70;99.90
39657;DHT22;25337;51.478;7.510;2024-01-27T04:05:06;1.80;99.90
39657;DHT22;25337;51.478;7.510;2024-01-27T04:07:32;1.80;99.90
39657;DHT22;25337;51.478;7.510;2024-01-27T04:09:57;1.80;99.90
39657;DHT22;25337;51.478;7.510;2024-01-27T04:12:23;1.80;99.90
39657;DHT22;25337;51.478;7.510;2024-01-27T04:14:48;1.70;99.90
39657;DHT22;25337;51.478;7.510;2024-01-27T04:17:14;1.80;99.90
39657;DHT22;25337;51.478;7.510;2024-01-27T04:19:40;1.80;99.90
39657;DHT22;25337;51.478;7.510;2024-01-27T04:22:05;1.80;99.90
39657;DHT22;25337;51.478;7.510;2024-01-27T04:24:31;1.80;99.90
39657;DHT22;25337;51.478;7.510;2024-01-27T04:26:57;1.70;99.90
39657;DHT22;25337;51.478;7.510;2024-01-27T04:29:23;1.70;99.90
39657;DHT22;25337;51.478;7.510;2024-01-27T04:31:49;1.70;99.90
39657;DHT22;25337;51.478;7.510;2024-01-27T04:34:14;1.80;99.90
39657;DHT22;25337;51.478;7.510;2024-01-27T04:36:40;1.70;99.90
39657;DHT22;25337;51.478;7.510;2024-01-27T04:39:06;1.70;99.90
39657;DHT22;25337;51.478;7.510;2024-01-27T04:41:31;1.70;99.90
39657;DHT22;25337;51.478;7.510;2024-01-27T04:43:57;1.60;99.90
39657;DHT22;25337;51.478;7.510;2024-01-27T04:46:24;1.50;99.90
39657;DHT22;25337;51.478;7.510;2024-01-27T04:48:49;1.50;99.90
39657;DHT22;25337;51.478;7.510;2024-01-27T04:51:15;1.60;99.90
39657;DHT22;25337;51.478;7.510;2024-01-27T04:53:41;1.50;99.90
39657;DHT22;25337;51.478;7.510;2024-01-27T04:56:06;1.50;99.90
39657;DHT22;25337;51.478;7.510;2024-01-27T04:58:34;1.60;99.90
39657;DHT22;25337;51.478;7.510;2024-01-27T05:01:01;1.60;99.90
39657;DHT22;25337;51.478;7.510;2024-01-27T05:03:26;1.70;99.90
39657;DHT22;25337;51.478;7.510;2024-01-27T05:05:52;1.70;99.90
39657;DHT22;25337;51.478;7.510;2024-01-27T05:08:18;1.70;99.90
39657;DHT22;25337;51.478;7.510;2024-01-27T05:10:44;1.70;99.90
39657;DHT22;25337;51.478;7.510;2024-01-27T05:13:10;1.80;99.90
39657;DHT22;25337;51.478;7.510;2024-01-27T05:15:36;1.80;99.90
39657;DHT22;25337;51.478;7.510;2024-01-27T05:18:01;1.80;99.90
39657;DHT22;25337;51.478;7.510;2024-01-27T05:20:27;1.80;99.90
39657;DHT22;25337;51.478;7.510;2024-01-27T05:22:53;1.70;99.90
39657;DHT22;25337;51.478;7.510;2024-01-27T05:25:18;1.70;99.90
39657;DHT22;25337;51.478;7.510;2024-01-27T05:27:44;1.70;99.90
39657;DHT22;25337;51.478;7.510;2024-01-27T05:30:10;1.60;99.90
39657;DHT22;25337;51.478;7.510;2024-01-27T05:32:36;1.50;99.90
39657;DHT22;25337;51.478;7.510;2024-01-27T05:35:01;1.50;99.90
39657;DHT22;25337;51.478;7.510;2024-01-27T05:37:28;1.40;99.90
39657;DHT22;25337;51.478;7.510;2024-01-27T05:39:54;1.50;99.90
39657;DHT22;25337;51.478;7.510;2024-01-27T05:42:21;1.30;99.90
39657;DHT22;25337;51.478;7.510;2024-01-27T05:44:46;1.20;99.90
39657;DHT22;25337;51.478;7.510;2024-01-27T05:47:12;1.10;99.90
39657;DHT22;25337;51.478;7.510;2024-01-27T05:49:38;1.10;99.90
39657;DHT22;25337;51.478;7.510;2024-01-27T05:52:04;1.00;99.90
39657;DHT22;25337;51.478;7.510;2024-01-27T05:54:29;1.00;99.90
39657;DHT22;25337;51.478;7.510;2024-01-27T05:56:55;1.20;99.90
39657;DHT22;25337;51.478;7.510;2024-01-27T05:59:21;1.30;99.90
39657;DHT22;25337;51.478;7.510;2024-01-27T06:01:47;1.30;99.90
39657;DHT22;25337;51.478;7.510;2024-01-27T06:04:13;1.30;99.90
39657;DHT22;25337;51.478;7.510;2024-01-27T06:06:38;1.30;99.90
39657;DHT22;25337;51.478;7.510;2024-01-27T06:09:07;1.30;99.90
39657;DHT22;25337;51.478;7.510;2024-01-27T06:11:37;1.30;99.90
39657;DHT22;25337;51.478;7.510;2024-01-27T06:14:03;1.30;99.90
39657;DHT22;25337;51.478;7.510;2024-01-27T06:16:29;1.30;99.90
39657;DHT22;25337;51.478;7.510;2024-01-27T06:18:54;1.30;99.90
39657;DHT22;25337;51.478;7.510;2024-01-27T06:21:20;1.50;99.90
39657;DHT22;25337;51.478;7.510;2024-01-27T06:23:46;1.60;99.90
39657;DHT22;25337;51.478;7.510;2024-01-27T06:26:13;1.60;99.90
39657;DHT22;25337;51.478;7.510;2024-01-27T06:28:40;1.50;99.90
39657;DHT22;25337;51.478;7.510;2024-01-27T06:31:06;1.40;99.90
39657;DHT22;25337;51.478;7.510;2024-01-27T06:33:34;1.30;99.90
39657;DHT22;25337;51.478;7.510;2024-01-27T06:36:00;1.30;99.90
39657;DHT22;25337;51.478;7.510;2024-01-27T06:38:27;1.30;99.90
39657;DHT22;25337;51.478;7.510;2024-01-27T06:40:53;1.30;99.90
39657;DHT22;25337;51.478;7.510;2024-01-27T06:43:19;1.20;99.90
39657;DHT22;25337;51.478;7.510;2024-01-27T06:45:44;1.10;99.90
39657;DHT22;25337;51.478;7.510;2024-01-27T06:48:10;1.10;99.90
39657;DHT22;25337;51.478;7.510;2024-01-27T06:50:35;1.00;99.90
39657;DHT22;25337;51.478;7.510;2024-01-27T06:53:01;1.00;99.90
39657;DHT22;25337;51.478;7.510;2024-01-27T06:55:27;1.00;99.90
39657;DHT22;25337;51.478;7.510;2024-01-27T06:57:53;1.00;99.90
39657;DHT22;25337;51.478;7.510;2024-01-27T07:00:19;1.00;99.90
39657;DHT22;25337;51.478;7.510;2024-01-27T07:02:45;1.00;99.90
39657;DHT22;25337;51.478;7.510;2024-01-27T07:05:11;1.00;99.90
39657;DHT22;25337;51.478;7.510;2024-01-27T07:07:38;1.00;99.90
39657;DHT22;25337;51.478;7.510;2024-01-27T07:10:04;1.10;99.90
39657;DHT22;25337;51.478;7.510;2024-01-27T07:12:33;1.20;99.90
39657;DHT22;25337;51.478;7.510;2024-01-27T07:14:58;1.30;99.90
39657;DHT22;25337;51.478;7.510;2024-01-27T07:17:26;1.40;99.90
39657;DHT22;25337;51.478;7.510;2024-01-27T07:19:52;1.40;99.90
39657;DHT22;25337;51.478;7.510;2024-01-27T07:22:17;1.50;99.90
39657;DHT22;25337;51.478;7.510;2024-01-27T07:24:43;1.60;99.90
39657;DHT22;25337;51.478;7.510;2024-01-27T07:27:12;1.70;99.90
39657;DHT22;25337;51.478;7.510;2024-01-27T07:29:38;1.70;99.90
39657;DHT22;25337;51.478;7.510;2024-01-27T07:32:04;1.70;99.90
39657;DHT22;25337;51.478;7.510;2024-01-27T07:34:30;1.80;99.90
39657;DHT22;25337;51.478;7.510;2024-01-27T07:36:56;1.80;99.90
39657;DHT22;25337;51.478;7.510;2024-01-27T07:39:21;1.90;99.90
39657;DHT22;25337;51.478;7.510;2024-01-27T07:41:47;1.90;99.90
39657;DHT22;25337;51.478;7.510;2024-01-27T07:44:14;1.90;99.90
39657;DHT22;25337;51.478;7.510;2024-01-27T07:46:41;1.90;99.90
39657;DHT22;25337;51.478;7.510;2024-01-27T07:49:07;1.90;99.90
39657;DHT22;25337;51.478;7.510;2024-01-27T07:51:33;1.90;99.90
39657;DHT22;25337;51.478;7.510;2024-01-27T07:54:00;1.90;99.90
39657;DHT22;25337;51.478;7.510;2024-01-27T07:56:26;1.80;99.90
39657;DHT22;25337;51.478;7.510;2024-01-27T07:58:52;1.80;99.90
39657;DHT22;25337;51.478;7.510;2024-01-27T08:01:18;1.70;99.90
39657;DHT22;25337;51.478;7.510;2024-01-27T08:03:44;1.70;99.90
39657;DHT22;25337;51.478;7.510;2024-01-27T08:06:30;1.70;99.90
39657;DHT22;25337;51.478;7.510;2024-01-27T08:08:56;1.70;99.90
39657;DHT22;25337;51.478;7.510;2024-01-27T08:11:21;1.80;99.90
39657;DHT22;25337;51.478;7.510;2024-01-27T08:13:47;2.00;99.90
39657;DHT22;25337;51.478;7.510;2024-01-27T08:16:13;2.20;99.90
39657;DHT22;25337;51.478;7.510;2024-01-27T08:18:40;2.20;99.90
39657;DHT22;25337;51.478;7.510;2024-01-27T08:21:08;2.20;99.90
39657;DHT22;25337;51.478;7.510;2024-01-27T08:23:34;2.30;99.90
39657;DHT22;25337;51.478;7.510;2024-01-27T08:25:59;2.40;99.90
39657;DHT22;25337;51.478;7.510;2024-01-27T08:28:25;2.50;99.90
39657;DHT22;25337;51.478;7.510;2024-01-27T08:30:51;2.50;99.90
39657;DHT22;25337;51.478;7.510;2024-01-27T08:33:17;2.50;99.90
39657;DHT22;25337;51.478;7.510;2024-01-27T08:35:42;2.60;99.90
39657;DHT22;25337;51.478;7.510;2024-01-27T08:38:08;2.60;99.90
39657;DHT22;25337;51.478;7.510;2024-01-27T08:40:35;2.70;99.90
39657;DHT22;25337;51.478;7.510;2024-01-27T08:43:01;3.40;99.90
39657;DHT22;25337;51.478;7.510;2024-01-27T08:45:27;2.70;99.90
39657;DHT22;25337;51.478;7.510;2024-01-27T08:47:53;2.80;99.90
39657;DHT22;25337;51.478;7.510;2024-01-27T08:50:19;2.90;99.90
39657;DHT22;25337;51.478;7.510;2024-01-27T08:52:44;2.90;99.90
39657;DHT22;25337;51.478;7.510;2024-01-27T08:55:11;2.90;99.90
39657;DHT22;25337;51.478;7.510;2024-01-27T08:57:37;3.10;99.90
39657;DHT22;25337;51.478;7.510;2024-01-27T09:00:03;3.40;99.90
39657;DHT22;25337;51.478;7.510;2024-01-27T09:02:29;3.80;99.90
39657;DHT22;25337;51.478;7.510;2024-01-27T09:04:54;4.10;99.90
39657;DHT22;25337;51.478;7.510;2024-01-27T09:07:21;4.60;99.90
39657;DHT22;25337;51.478;7.510;2024-01-27T09:09:46;5.00;99.90
39657;DHT22;25337;51.478;7.510;2024-01-27T09:12:12;5.30;99.90
39657;DHT22;25337;51.478;7.510;2024-01-27T09:14:38;5.70;99.90
39657;DHT22;25337;51.478;7.510;2024-01-27T09:17:03;6.00;99.90
39657;DHT22;25337;51.478;7.510;2024-01-27T09:19:29;6.20;99.90
39657;DHT22;25337;51.478;7.510;2024-01-27T09:21:54;6.50;99.90
39657;DHT22;25337;51.478;7.510;2024-01-27T09:24:20;6.80;99.90
39657;DHT22;25337;51.478;7.510;2024-01-27T09:26:45;7.10;99.90
39657;DHT22;25337;51.478;7.510;2024-01-27T09:29:11;7.30;99.90
39657;DHT22;25337;51.478;7.510;2024-01-27T09:31:37;7.50;99.90
39657;DHT22;25337;51.478;7.510;2024-01-27T09:34:03;7.60;99.90
39657;DHT22;25337;51.478;7.510;2024-01-27T09:36:29;7.70;99.90
39657;DHT22;25337;51.478;7.510;2024-01-27T09:38:54;7.90;99.90
39657;DHT22;25337;51.478;7.510;2024-01-27T09:41:20;8.00;99.90
39657;DHT22;25337;51.478;7.510;2024-01-27T09:43:46;8.00;99.90
39657;DHT22;25337;51.478;7.510;2024-01-27T09:46:14;8.30;99.90
39657;DHT22;25337;51.478;7.510;2024-01-27T09:48:39;8.50;99.90
39657;DHT22;25337;51.478;7.510;2024-01-27T09:51:08;8.70;99.90
39657;DHT22;25337;51.478;7.510;2024-01-27T09:53:34;8.90;99.90
39657;DHT22;25337;51.478;7.510;2024-01-27T09:56:01;9.30;99.90
39657;DHT22;25337;51.478;7.510;2024-01-27T09:58:30;9.50;99.90
39657;DHT22;25337;51.478;7.510;2024-01-27T10:00:57;9.50;99.90
39657;DHT22;25337;51.478;7.510;2024-01-27T10:03:27;9.40;99.90
39657;DHT22;25337;51.478;7.510;2024-01-27T10:05:54;9.30;99.90
39657;DHT22;25337;51.478;7.510;2024-01-27T10:08:21;8.70;99.90
39657;DHT22;25337;51.478;7.510;2024-01-27T10:10:47;8.40;99.90
39657;DHT22;25337;51.478;7.510;2024-01-27T10:13:15;8.50;99.90
39657;DHT22;25337;51.478;7.510;2024-01-27T10:15:42;8.30;99.90
39657;DHT22;25337;51.478;7.510;2024-01-27T10:18:08;8.40;99.90
39657;DHT22;25337;51.478;7.510;2024-01-27T10:20:39;8.60;99.90
39657;DHT22;25337;51.478;7.510;2024-01-27T10:23:11;8.80;99.90
39657;DHT22;25337;51.478;7.510;2024-01-27T10:25:38;9.10;99.90
39657;DHT22;25337;51.478;7.510;2024-01-27T10:28:06;9.40;99.90
39657;DHT22;25337;51.478;7.510;2024-01-27T10:30:32;9.80;99.90
39657;DHT22;25337;51.478;7.510;2024-01-27T10:32:57;10.20;99.90
39657;DHT22;25337;51.478;7.510;2024-01-27T10:35:23;10.20;99.90
39657;DHT22;25337;51.478;7.510;2024-01-27T10:37:53;10.00;99.90
39657;DHT22;25337;51.478;7.510;2024-01-27T10:40:20;10.00;99.90
39657;DHT22;25337;51.478;7.510;2024-01-27T10:42:46;10.50;99.90
39657;DHT22;25337;51.478;7.510;2024-01-27T10:45:12;10.90;99.40
39657;DHT22;25337;51.478;7.510;2024-01-27T10:47:38;11.10;97.70
39657;DHT22;25337;51.478;7.510;2024-01-27T10:50:08;10.70;97.90
39657;DHT22;25337;51.478;7.510;2024-01-27T10:52:38;10.40;99.30
39657;DHT22;25337;51.478;7.510;2024-01-27T10:55:05;10.40;99.20
39657;DHT22;25337;51.478;7.510;2024-01-27T10:57:33;10.80;97.60
39657;DHT22;25337;51.478;7.510;2024-01-27T11:00:01;11.20;97.70
39657;DHT22;25337;51.478;7.510;2024-01-27T11:02:33;11.80;94.00
39657;DHT22;25337;51.478;7.510;2024-01-27T11:05:00;11.70;94.80
39657;DHT22;25337;51.478;7.510;2024-01-27T11:07:28;11.40;96.20
39657;DHT22;25337;51.478;7.510;2024-01-27T11:09:55;11.40;96.70
39657;DHT22;25337;51.478;7.510;2024-01-27T11:12:22;11.80;94.80
39657;DHT22;25337;51.478;7.510;2024-01-27T11:14:48;12.30;93.20
39657;DHT22;25337;51.478;7.510;2024-01-27T11:17:15;12.50;92.70
39657;DHT22;25337;51.478;7.510;2024-01-27T11:19:42;12.60;92.30
39657;DHT22;25337;51.478;7.510;2024-01-27T11:22:07;12.90;88.80
39657;DHT22;25337;51.478;7.510;2024-01-27T11:24:33;13.00;90.00
39657;DHT22;25337;51.478;7.510;2024-01-27T11:27:06;12.80;90.30
39657;DHT22;25337;51.478;7.510;2024-01-27T11:29:32;12.50;91.60
39657;DHT22;25337;51.478;7.510;2024-01-27T11:32:03;12.30;91.10
39657;DHT22;25337;51.478;7.510;2024-01-27T11:34:44;12.20;91.70
39657;DHT22;25337;51.478;7.510;2024-01-27T11:37:14;12.10;90.90
39657;DHT22;25337;51.478;7.510;2024-01-27T11:39:40;12.30;91.90
39657;DHT22;25337;51.478;7.510;2024-01-27T11:42:10;12.60;91.70
39657;DHT22;25337;51.478;7.510;2024-01-27T11:44:40;13.10;84.70
39657;DHT22;25337;51.478;7.510;2024-01-27T11:47:19;12.90;86.80
39657;DHT22;25337;51.478;7.510;2024-01-27T11:49:52;12.50;90.60
39657;DHT22;25337;51.478;7.510;2024-01-27T11:52:19;12.10;91.60
39657;DHT22;25337;51.478;7.510;2024-01-27T11:54:44;12.30;91.80
39657;DHT22;25337;51.478;7.510;2024-01-27T11:57:10;13.00;89.30
39657;DHT22;25337;51.478;7.510;2024-01-27T11:59:36;13.50;83.30
39657;DHT22;25337;51.478;7.510;2024-01-27T12:02:02;13.50;83.30
39657;DHT22;25337;51.478;7.510;2024-01-27T12:04:28;12.90;82.80
39657;DHT22;25337;51.478;7.510;2024-01-27T12:06:54;12.60;85.80
39657;DHT22;25337;51.478;7.510;2024-01-27T12:09:20;12.30;87.90
39657;DHT22;25337;51.478;7.510;2024-01-27T12:11:45;12.10;91.50
39657;DHT22;25337;51.478;7.510;2024-01-27T12:14:11;12.60;90.40
39657;DHT22;25337;51.478;7.510;2024-01-27T12:16:38;13.10;84.60
39657;DHT22;25337;51.478;7.510;2024-01-27T12:19:03;13.70;81.30
39657;DHT22;25337;51.478;7.510;2024-01-27T12:21:29;14.10;79.80
39657;DHT22;25337;51.478;7.510;2024-01-27T12:23:56;14.10;76.60
39657;DHT22;25337;51.478;7.510;2024-01-27T12:26:25;13.90;81.20
39657;DHT22;25337;51.478;7.510;2024-01-27T12:28:50;13.60;76.50
39657;DHT22;25337;51.478;7.510;2024-01-27T12:31:16;13.10;85.10
39657;DHT22;25337;51.478;7.510;2024-01-27T12:33:53;13.40;77.50
39657;DHT22;25337;51.478;7.510;2024-01-27T12:36:20;13.00;79.90
39657;DHT22;25337;51.478;7.510;2024-01-27T12:39:08;12.60;81.60
39657;DHT22;25337;51.478;7.510;2024-01-27T12:41:32;12.70;79.10
39657;DHT22;25337;51.478;7.510;2024-01-27T12:43:59;12.30;83.00
39657;DHT22;25337;51.478;7.510;2024-01-27T12:46:25;12.10;82.90
39657;DHT22;25337;51.478;7.510;2024-01-27T12:48:51;11.80;86.10
39657;DHT22;25337;51.478;7.510;2024-01-27T12:51:17;11.90;86.80
39657;DHT22;25337;51.478;7.510;2024-01-27T12:53:43;12.20;87.90
39657;DHT22;25337;51.478;7.510;2024-01-27T12:56:13;12.90;81.90
39657;DHT22;25337;51.478;7.510;2024-01-27T12:58:40;12.20;82.50
39657;DHT22;25337;51.478;7.510;2024-01-27T13:01:06;11.80;88.90
39657;DHT22;25337;51.478;7.510;2024-01-27T13:03:32;12.10;84.90
39657;DHT22;25337;51.478;7.510;2024-01-27T13:05:57;12.30;81.80
39657;DHT22;25337;51.478;7.510;2024-01-27T13:08:23;12.50;84.00
39657;DHT22;25337;51.478;7.510;2024-01-27T13:10:49;12.40;84.10
39657;DHT22;25337;51.478;7.510;2024-01-27T13:13:15;12.80;80.30
39657;DHT22;25337;51.478;7.510;2024-01-27T13:15:41;13.50;73.50
39657;DHT22;25337;51.478;7.510;2024-01-27T13:18:06;13.50;73.30
39657;DHT22;25337;51.478;7.510;2024-01-27T13:20:32;13.50;72.10
39657;DHT22;25337;51.478;7.510;2024-01-27T13:22:58;14.20;68.60
39657;DHT22;25337;51.478;7.510;2024-01-27T13:25:24;14.70;67.40
39657;DHT22;25337;51.478;7.510;2024-01-27T13:27:50;14.40;67.60
39657;DHT22;25337;51.478;7.510;2024-01-27T13:30:16;13.40;70.70
39657;DHT22;25337;51.478;7.510;2024-01-27T13:32:43;12.50;78.60
39657;DHT22;25337;51.478;7.510;2024-01-27T13:35:09;12.70;78.80
39657;DHT22;25337;51.478;7.510;2024-01-27T13:37:36;12.90;77.50
39657;DHT22;25337;51.478;7.510;2024-01-27T13:40:05;13.30;74.50
39657;DHT22;25337;51.478;7.510;2024-01-27T13:42:33;13.00;73.90
39657;DHT22;25337;51.478;7.510;2024-01-27T13:44:58;12.00;79.00
39657;DHT22;25337;51.478;7.510;2024-01-27T13:47:24;11.50;81.80
39657;DHT22;25337;51.478;7.510;2024-01-27T13:49:50;11.40;84.70
39657;DHT22;25337;51.478;7.510;2024-01-27T13:52:16;11.30;84.50
39657;DHT22;25337;51.478;7.510;2024-01-27T13:54:42;11.10;85.10
39657;DHT22;25337;51.478;7.510;2024-01-27T13:57:09;11.10;88.00
39657;DHT22;25337;51.478;7.510;2024-01-27T13:59:36;11.00;89.60
39657;DHT22;25337;51.478;7.510;2024-01-27T14:02:01;10.60;91.60
39657;DHT22;25337;51.478;7.510;2024-01-27T14:04:27;10.20;93.10
39657;DHT22;25337;51.478;7.510;2024-01-27T14:06:53;10.00;93.90
39657;DHT22;25337;51.478;7.510;2024-01-27T14:09:25;10.00;95.40
39657;DHT22;25337;51.478;7.510;2024-01-27T14:11:52;10.20;93.50
39657;DHT22;25337;51.478;7.510;2024-01-27T14:14:18;10.40;92.00
39657;DHT22;25337;51.478;7.510;2024-01-27T14:16:44;10.20;93.90
39657;DHT22;25337;51.478;7.510;2024-01-27T14:19:12;9.80;95.90
39657;DHT22;25337;51.478;7.510;2024-01-27T14:21:38;9.50;96.00
39657;DHT22;25337;51.478;7.510;2024-01-27T14:24:07;9.20;95.60
39657;DHT22;25337;51.478;7.510;2024-01-27T14:26:33;9.00;96.00
39657;DHT22;25337;51.478;7.510;2024-01-27T14:28:59;8.90;98.30
39657;DHT22;25337;51.478;7.510;2024-01-27T14:31:24;8.90;97.30
39657;DHT22;25337;51.478;7.510;2024-01-27T14:33:50;9.00;98.40
39657;DHT22;25337;51.478;7.510;2024-01-27T14:36:16;8.90;98.00
39657;DHT22;25337;51.478;7.510;2024-01-27T14:38:42;8.90;98.70
39657;DHT22;25337;51.478;7.510;2024-01-27T14:41:08;8.60;98.40
39657;DHT22;25337;51.478;7.510;2024-01-27T14:43:34;8.60;98.70
39657;DHT22;25337;51.478;7.510;2024-01-27T14:46:00;8.70;98.00
39657;DHT22;25337;51.478;7.510;2024-01-27T14:48:25;8.70;99.80
39657;DHT22;25337;51.478;7.510;2024-01-27T14:50:51;8.70;99.10
39657;DHT22;25337;51.478;7.510;2024-01-27T14:53:28;8.60;99.80
39657;DHT22;25337;51.478;7.510;2024-01-27T14:55:54;8.50;98.60
39657;DHT22;25337;51.478;7.510;2024-01-27T14:58:21;8.40;99.90
39657;DHT22;25337;51.478;7.510;2024-01-27T15:00:47;8.30;98.90
39657;DHT22;25337;51.478;7.510;2024-01-27T15:03:24;8.00;99.90
39657;DHT22;25337;51.478;7.510;2024-01-27T15:05:51;7.90;99.90
39657;DHT22;25337;51.478;7.510;2024-01-27T15:08:17;7.80;99.90
39657;DHT22;25337;51.478;7.510;2024-01-27T15:10:43;7.60;99.90
39657;DHT22;25337;51.478;7.510;2024-01-27T15:13:09;7.60;99.90
39657;DHT22;25337;51.478;7.510;2024-01-27T15:15:36;7.50;99.90
39657;DHT22;25337;51.478;7.510;2024-01-27T15:18:02;7.40;99.90
39657;DHT22;25337;51.478;7.510;2024-01-27T15:20:28;7.30;99.90
39657;DHT22;25337;51.478;7.510;2024-01-27T15:22:54;7.20;99.90
39657;DHT22;25337;51.478;7.510;2024-01-27T15:25:20;7.10;99.90
39657;DHT22;25337;51.478;7.510;2024-01-27T15:27:49;7.00;99.90
39657;DHT22;25337;51.478;7.510;2024-01-27T15:30:16;7.00;99.90
39657;DHT22;25337;51.478;7.510;2024-01-27T15:32:42;6.90;99.90
39657;DHT22;25337;51.478;7.510;2024-01-27T15:35:08;6.90;99.90
39657;DHT22;25337;51.478;7.510;2024-01-27T15:37:34;6.90;99.90